LIRVLIRA

Guest
Details From LIRV - VITERBO
To LIRA - CIAMPINO
Flight Number -
Tags generated
Created
Modified
Stats Distance 45 nm / 83 km
Max Altitude 0 ft / 0 m
Waypoints 3
Social Downloads 1
Likes 0
Share VATSIM

Download

Looking for another format? Having issues loading an existing format? Contact us
Advertisement - Login to hide

Notes

Basic altitude profile: - Ascent Rate: 2500ft/min - Ascent Speed: 120kts - Cruise Altitude: 4500ft - Cruise Speed: 150kts - Descent Rate: 1500ft/min - Descent Speed: 100kts Options: - Use NATs: yes - Use PACOTS: yes - Use low airways: yes - Use high airways: no

Route

LIRV ROM LIRA

ID Type Via Altitude Latitude Longitude Leg Dist Tot Dist Heading (true) Name
O LIRV APT - 0 ft / 0 m 42.43630˚ 12.06217˚ - 0 nm - VITERBO
ROM VOR - 0 ft / 0 m 41.80472˚ 12.58806˚ 44 nm 44 nm 148° / 148° ROMA VOR-DME
O LIRA APT - 0 ft / 0 m 41.79923˚ 12.59492˚ 0 nm 45 nm 137° / 137° CIAMPINO

Altitude Profile

Advertisement - Login to hide

LIRV

Details ICAO LIRV
Name VITERBO
Region Italy
Timezone Europe/Rome (UTC+1.0)
Stats Elevation 990 ft / 302 m (AMSL)
Location 42.436303° 12.062167°
Runways 3
Magnetic Variation 2.987° E

METAR

LIRV 130855Z 18006KT 9999 SCT009 SCT015 BKN025 10/07 Q1017 RMK BKN MON E SE CLD CIME NC VIS MIN 9999 BLU

Decode

TAF

Not found

Departure Runways

ID Width Length Bearing (true) Bearing (mag) Surface Threshold Offset Overrun Length
04C 164 ft / 50 m 4,222 ft / 1,287 m 38.36° 35.37° Grass 0 ft / 0 m 0 ft / 0 m
04L 82 ft / 25 m 3,295 ft / 1,004 m 38.48° 35.49° Asphalt 0 ft / 0 m 0 ft / 0 m
04R 112 ft / 34 m 1,936 ft / 590 m 38.73° 35.74° Asphalt 0 ft / 0 m 0 ft / 0 m
22C 164 ft / 50 m 4,222 ft / 1,287 m 218.37° 215.38° Grass 0 ft / 0 m 0 ft / 0 m
22L 112 ft / 34 m 1,936 ft / 590 m 218.73° 215.74° Asphalt 0 ft / 0 m 0 ft / 0 m
22R 82 ft / 25 m 3,295 ft / 1,004 m 218.48° 215.49° Asphalt 0 ft / 0 m 0 ft / 0 m

LIRA

Details ICAO LIRA (CIA)
Name CIAMPINO
Region Italy
Timezone Europe/Rome (UTC+1.0)
Stats Elevation 427 ft / 130 m (AMSL)
Location 41.799228° 12.594917°
Runways 1
Magnetic Variation 3.057° E

METAR

LIRA 130920Z 19005KT 150V220 9999 SCT020 13/10 Q1019

Decode

TAF

TAF LIRA 130500Z 1306/1406 23010KT 9999 SCT015 BKN030 TEMPO 1306/1308 4000 RA BECMG 1316/1318 VRB06KT

Decode

Destination Runways

ID Width Length Bearing (true) Bearing (mag) Surface Threshold Offset Overrun Length
15 154 ft / 47 m 7,246 ft / 2,209 m 152.79° 149.73° Asphalt 0 ft / 0 m 0 ft / 0 m
33 154 ft / 47 m 7,246 ft / 2,209 m 332.80° 329.74° Asphalt 0 ft / 0 m 0 ft / 0 m

Approach Navaids

Runway Type Ident Frequency Range Bearing (true) Bearing (mag) Slope Elevation
15 Localiser CIA 109.90 MHz 18 nm / 33 km 152.81° 149.75° - 426 ft / 130 m (AMSL)
15 Glidescope CIA 109.90 MHz 10 nm / 19 km 152.79° 149.74° 3.00° 384 ft / 117 m (AMSL)

Popular Alternatives